sensor_id;sensor_type;location;lat;lon;timestamp;temperature;humidity
78708;SHT31;68037;51.978;5.650;2023-04-09T00:01:39;14.7;55.7
78708;SHT31;68037;51.978;5.650;2023-04-09T00:04:11;14.6;55.8
78708;SHT31;68037;51.978;5.650;2023-04-09T00:06:40;14.6;55.9
78708;SHT31;68037;51.978;5.650;2023-04-09T00:09:09;14.6;55.9
78708;SHT31;68037;51.978;5.650;2023-04-09T00:11:39;14.5;56.1
78708;SHT31;68037;51.978;5.650;2023-04-09T00:14:08;14.5;56.2
78708;SHT31;68037;51.978;5.650;2023-04-09T00:16:38;14.5;56.2
78708;SHT31;68037;51.978;5.650;2023-04-09T00:19:08;14.4;56.4
78708;SHT31;68037;51.978;5.650;2023-04-09T00:21:38;14.4;56.4
78708;SHT31;68037;51.978;5.650;2023-04-09T00:24:08;14.4;56.4
78708;SHT31;68037;51.978;5.650;2023-04-09T00:26:39;14.4;56.5
78708;SHT31;68037;51.978;5.650;2023-04-09T00:29:08;14.3;56.6
78708;SHT31;68037;51.978;5.650;2023-04-09T00:31:38;14.3;57.0
78708;SHT31;68037;51.978;5.650;2023-04-09T00:34:08;14.3;57.2
78708;SHT31;68037;51.978;5.650;2023-04-09T00:36:37;14.2;57.1
78708;SHT31;68037;51.978;5.650;2023-04-09T00:39:07;14.2;57.1
78708;SHT31;68037;51.978;5.650;2023-04-09T00:41:37;14.2;57.2
78708;SHT31;68037;51.978;5.650;2023-04-09T00:44:06;14.2;57.4
78708;SHT31;68037;51.978;5.650;2023-04-09T00:46:37;14.2;57.5
78708;SHT31;68037;51.978;5.650;2023-04-09T00:49:06;14.2;57.4
78708;SHT31;68037;51.978;5.650;2023-04-09T00:51:39;14.2;57.4
78708;SHT31;68037;51.978;5.650;2023-04-09T00:54:09;14.2;57.3
78708;SHT31;68037;51.978;5.650;2023-04-09T00:56:39;14.2;57.2
78708;SHT31;68037;51.978;5.650;2023-04-09T00:59:11;14.2;57.3
78708;SHT31;68037;51.978;5.650;2023-04-09T01:01:40;14.2;57.1
78708;SHT31;68037;51.978;5.650;2023-04-09T01:04:10;14.2;57.5
78708;SHT31;68037;51.978;5.650;2023-04-09T01:06:46;14.2;57.6
78708;SHT31;68037;51.978;5.650;2023-04-09T01:09:29;14.3;57.3
78708;SHT31;68037;51.978;5.650;2023-04-09T01:12:13;14.3;57.3
78708;SHT31;68037;51.978;5.650;2023-04-09T01:14:53;14.4;56.9
78708;SHT31;68037;51.978;5.650;2023-04-09T01:17:32;14.4;56.7
78708;SHT31;68037;51.978;5.650;2023-04-09T01:20:10;14.4;57.0
78708;SHT31;68037;51.978;5.650;2023-04-09T01:22:53;14.5;56.7
78708;SHT31;68037;51.978;5.650;2023-04-09T01:25:36;14.5;56.4
78708;SHT31;68037;51.978;5.650;2023-04-09T01:28:18;14.5;56.7
78708;SHT31;68037;51.978;5.650;2023-04-09T01:30:52;14.5;56.6
78708;SHT31;68037;51.978;5.650;2023-04-09T01:33:29;14.5;56.6
78708;SHT31;68037;51.978;5.650;2023-04-09T01:36:02;14.5;56.5
78708;SHT31;68037;51.978;5.650;2023-04-09T01:38:35;14.5;56.3
78708;SHT31;68037;51.978;5.650;2023-04-09T01:41:07;14.4;56.6
78708;SHT31;68037;51.978;5.650;2023-04-09T01:43:38;14.4;57.0
78708;SHT31;68037;51.978;5.650;2023-04-09T01:46:08;14.4;56.9
78708;SHT31;68037;51.978;5.650;2023-04-09T01:48:39;14.3;57.0
78708;SHT31;68037;51.978;5.650;2023-04-09T01:51:11;14.3;57.0
78708;SHT31;68037;51.978;5.650;2023-04-09T01:53:41;14.3;57.1
78708;SHT31;68037;51.978;5.650;2023-04-09T01:56:10;14.3;57.3
78708;SHT31;68037;51.978;5.650;2023-04-09T01:58:40;14.2;57.3
78708;SHT31;68037;51.978;5.650;2023-04-09T02:01:15;14.2;57.3
78708;SHT31;68037;51.978;5.650;2023-04-09T02:03:50;14.2;57.5
78708;SHT31;68037;51.978;5.650;2023-04-09T02:06:27;14.2;57.5
78708;SHT31;68037;51.978;5.650;2023-04-09T02:09:00;14.1;57.7
78708;SHT31;68037;51.978;5.650;2023-04-09T02:11:32;14.1;58.0
78708;SHT31;68037;51.978;5.650;2023-04-09T02:14:05;14.1;58.0
78708;SHT31;68037;51.978;5.650;2023-04-09T02:16:38;14.1;58.3
78708;SHT31;68037;51.978;5.650;2023-04-09T02:19:08;14.1;58.3
78708;SHT31;68037;51.978;5.650;2023-04-09T02:21:38;14.1;58.5
78708;SHT31;68037;51.978;5.650;2023-04-09T02:24:09;14.0;58.3
78708;SHT31;68037;51.978;5.650;2023-04-09T02:26:38;14.0;58.0
78708;SHT31;68037;51.978;5.650;2023-04-09T02:29:08;14.0;58.5
78708;SHT31;68037;51.978;5.650;2023-04-09T02:31:37;14.0;58.0
78708;SHT31;68037;51.978;5.650;2023-04-09T02:34:07;14.0;58.3
78708;SHT31;68037;51.978;5.650;2023-04-09T02:36:36;14.0;58.1
78708;SHT31;68037;51.978;5.650;2023-04-09T02:39:06;13.9;58.2
78708;SHT31;68037;51.978;5.650;2023-04-09T02:41:36;13.9;58.0
78708;SHT31;68037;51.978;5.650;2023-04-09T02:44:06;13.9;58.1
78708;SHT31;68037;51.978;5.650;2023-04-09T02:46:37;13.8;58.2
78708;SHT31;68037;51.978;5.650;2023-04-09T02:49:07;13.8;58.2
78708;SHT31;68037;51.978;5.650;2023-04-09T02:51:36;13.8;58.5
78708;SHT31;68037;51.978;5.650;2023-04-09T02:54:07;13.7;58.5
78708;SHT31;68037;51.978;5.650;2023-04-09T02:56:42;13.7;58.6
78708;SHT31;68037;51.978;5.650;2023-04-09T02:59:11;13.7;58.6
78708;SHT31;68037;51.978;5.650;2023-04-09T03:01:41;13.6;58.7
78708;SHT31;68037;51.978;5.650;2023-04-09T03:04:12;13.6;58.8
78708;SHT31;68037;51.978;5.650;2023-04-09T03:06:42;13.6;59.1
78708;SHT31;68037;51.978;5.650;2023-04-09T03:09:11;13.5;58.8
78708;SHT31;68037;51.978;5.650;2023-04-09T03:11:41;13.5;58.7
78708;SHT31;68037;51.978;5.650;2023-04-09T03:14:10;13.5;58.8
78708;SHT31;68037;51.978;5.650;2023-04-09T03:16:40;13.5;59.1
78708;SHT31;68037;51.978;5.650;2023-04-09T03:19:10;13.5;58.8
78708;SHT31;68037;51.978;5.650;2023-04-09T03:21:39;13.5;58.2
78708;SHT31;68037;51.978;5.650;2023-04-09T03:24:11;13.5;58.4
78708;SHT31;68037;51.978;5.650;2023-04-09T03:26:40;13.5;58.4
78708;SHT31;68037;51.978;5.650;2023-04-09T03:29:10;13.5;58.8
78708;SHT31;68037;51.978;5.650;2023-04-09T03:31:39;13.5;58.9
78708;SHT31;68037;51.978;5.650;2023-04-09T03:34:08;13.6;58.7
78708;SHT31;68037;51.978;5.650;2023-04-09T03:36:38;13.6;58.7
78708;SHT31;68037;51.978;5.650;2023-04-09T03:39:07;13.7;57.8
78708;SHT31;68037;51.978;5.650;2023-04-09T03:41:38;13.7;57.5
78708;SHT31;68037;51.978;5.650;2023-04-09T03:44:09;13.7;57.5
78708;SHT31;68037;51.978;5.650;2023-04-09T03:46:38;13.7;57.8
78708;SHT31;68037;51.978;5.650;2023-04-09T03:49:09;13.7;57.4
78708;SHT31;68037;51.978;5.650;2023-04-09T03:51:38;13.6;57.9
78708;SHT31;68037;51.978;5.650;2023-04-09T03:54:08;13.6;58.1
78708;SHT31;68037;51.978;5.650;2023-04-09T03:56:37;13.6;58.0
78708;SHT31;68037;51.978;5.650;2023-04-09T03:59:07;13.5;58.2
78708;SHT31;68037;51.978;5.650;2023-04-09T04:01:37;13.5;58.1
78708;SHT31;68037;51.978;5.650;2023-04-09T04:04:06;13.4;58.4
78708;SHT31;68037;51.978;5.650;2023-04-09T04:06:36;13.4;58.5
78708;SHT31;68037;51.978;5.650;2023-04-09T04:09:05;13.4;58.5
78708;SHT31;68037;51.978;5.650;2023-04-09T04:11:35;13.3;58.6
78708;SHT31;68037;51.978;5.650;2023-04-09T04:14:04;13.3;58.0
78708;SHT31;68037;51.978;5.650;2023-04-09T04:16:33;13.3;57.9
78708;SHT31;68037;51.978;5.650;2023-04-09T04:19:03;13.2;57.3
78708;SHT31;68037;51.978;5.650;2023-04-09T04:21:33;13.2;57.6
78708;SHT31;68037;51.978;5.650;2023-04-09T04:24:02;13.2;57.8
78708;SHT31;68037;51.978;5.650;2023-04-09T04:26:32;13.2;58.2
78708;SHT31;68037;51.978;5.650;2023-04-09T04:29:03;13.2;58.5
78708;SHT31;68037;51.978;5.650;2023-04-09T04:31:33;13.2;58.6
78708;SHT31;68037;51.978;5.650;2023-04-09T04:34:02;13.2;58.4
78708;SHT31;68037;51.978;5.650;2023-04-09T04:36:32;13.2;58.9
78708;SHT31;68037;51.978;5.650;2023-04-09T04:39:01;13.2;58.8
78708;SHT31;68037;51.978;5.650;2023-04-09T04:41:31;13.2;59.2
78708;SHT31;68037;51.978;5.650;2023-04-09T04:44:00;13.2;59.3
78708;SHT31;68037;51.978;5.650;2023-04-09T04:46:30;13.2;59.0
78708;SHT31;68037;51.978;5.650;2023-04-09T04:48:59;13.2;59.1
78708;SHT31;68037;51.978;5.650;2023-04-09T04:51:30;13.2;58.8
78708;SHT31;68037;51.978;5.650;2023-04-09T04:54:00;13.2;58.7
78708;SHT31;68037;51.978;5.650;2023-04-09T04:56:29;13.1;58.3
78708;SHT31;68037;51.978;5.650;2023-04-09T04:58:59;13.2;58.6
78708;SHT31;68037;51.978;5.650;2023-04-09T05:01:28;13.2;59.1
78708;SHT31;68037;51.978;5.650;2023-04-09T05:03:58;13.2;59.3
78708;SHT31;68037;51.978;5.650;2023-04-09T05:06:30;13.1;59.5
78708;SHT31;68037;51.978;5.650;2023-04-09T05:09:00;13.1;59.7
78708;SHT31;68037;51.978;5.650;2023-04-09T05:11:31;13.1;59.9
78708;SHT31;68037;51.978;5.650;2023-04-09T05:14:01;13.1;59.8
78708;SHT31;68037;51.978;5.650;2023-04-09T05:16:31;13.1;59.9
78708;SHT31;68037;51.978;5.650;2023-04-09T05:19:03;13.1;60.0
78708;SHT31;68037;51.978;5.650;2023-04-09T05:21:32;13.0;60.4
78708;SHT31;68037;51.978;5.650;2023-04-09T05:24:02;13.0;60.3
78708;SHT31;68037;51.978;5.650;2023-04-09T05:26:32;13.0;60.3
78708;SHT31;68037;51.978;5.650;2023-04-09T05:29:02;13.0;60.4
78708;SHT31;68037;51.978;5.650;2023-04-09T05:31:33;13.0;60.4
78708;SHT31;68037;51.978;5.650;2023-04-09T05:34:03;12.9;60.6
78708;SHT31;68037;51.978;5.650;2023-04-09T05:36:33;12.9;59.8
78708;SHT31;68037;51.978;5.650;2023-04-09T05:39:02;12.9;59.5
78708;SHT31;68037;51.978;5.650;2023-04-09T05:41:35;12.9;59.3
78708;SHT31;68037;51.978;5.650;2023-04-09T05:44:09;12.8;58.4
78708;SHT31;68037;51.978;5.650;2023-04-09T05:46:38;12.8;58.3
78708;SHT31;68037;51.978;5.650;2023-04-09T05:49:08;12.7;59.0
78708;SHT31;68037;51.978;5.650;2023-04-09T05:51:37;12.7;58.9
78708;SHT31;68037;51.978;5.650;2023-04-09T05:54:07;12.7;58.1
78708;SHT31;68037;51.978;5.650;2023-04-09T05:56:37;12.7;58.2
78708;SHT31;68037;51.978;5.650;2023-04-09T05:59:07;12.7;58.1
78708;SHT31;68037;51.978;5.650;2023-04-09T06:01:37;12.7;58.0
78708;SHT31;68037;51.978;5.650;2023-04-09T06:04:06;12.7;57.9
78708;SHT31;68037;51.978;5.650;2023-04-09T06:06:38;12.6;58.0
78708;SHT31;68037;51.978;5.650;2023-04-09T06:09:07;12.6;58.7
78708;SHT31;68037;51.978;5.650;2023-04-09T06:11:37;12.6;58.8
78708;SHT31;68037;51.978;5.650;2023-04-09T06:14:06;12.5;58.5
78708;SHT31;68037;51.978;5.650;2023-04-09T06:16:38;12.5;58.5
78708;SHT31;68037;51.978;5.650;2023-04-09T06:19:08;12.6;58.0
78708;SHT31;68037;51.978;5.650;2023-04-09T06:21:38;12.7;57.6
78708;SHT31;68037;51.978;5.650;2023-04-09T06:24:09;12.8;57.5
78708;SHT31;68037;51.978;5.650;2023-04-09T06:26:43;12.9;57.3
78708;SHT31;68037;51.978;5.650;2023-04-09T06:29:12;12.9;56.3
78708;SHT31;68037;51.978;5.650;2023-04-09T06:31:42;13.0;56.1
78708;SHT31;68037;51.978;5.650;2023-04-09T06:34:15;13.1;55.8
78708;SHT31;68037;51.978;5.650;2023-04-09T06:36:44;13.1;55.7
78708;SHT31;68037;51.978;5.650;2023-04-09T06:39:15;13.2;55.9
78708;SHT31;68037;51.978;5.650;2023-04-09T06:41:45;13.3;55.6
78708;SHT31;68037;51.978;5.650;2023-04-09T06:44:14;13.3;55.4
78708;SHT31;68037;51.978;5.650;2023-04-09T06:46:44;13.3;54.9
78708;SHT31;68037;51.978;5.650;2023-04-09T06:49:14;13.3;54.5
78708;SHT31;68037;51.978;5.650;2023-04-09T06:51:43;13.3;54.8
78708;SHT31;68037;51.978;5.650;2023-04-09T06:54:13;13.3;55.0
78708;SHT31;68037;51.978;5.650;2023-04-09T06:56:42;13.2;55.4
78708;SHT31;68037;51.978;5.650;2023-04-09T06:59:12;13.1;55.6
78708;SHT31;68037;51.978;5.650;2023-04-09T07:01:42;13.1;55.6
78708;SHT31;68037;51.978;5.650;2023-04-09T07:04:14;13.0;56.1
78708;SHT31;68037;51.978;5.650;2023-04-09T07:06:45;12.9;56.2
78708;SHT31;68037;51.978;5.650;2023-04-09T07:09:14;12.9;56.1
78708;SHT31;68037;51.978;5.650;2023-04-09T07:11:45;12.9;56.8
78708;SHT31;68037;51.978;5.650;2023-04-09T07:14:14;12.8;57.0
78708;SHT31;68037;51.978;5.650;2023-04-09T07:16:44;12.8;57.2
78708;SHT31;68037;51.978;5.650;2023-04-09T07:19:14;12.8;57.3
78708;SHT31;68037;51.978;5.650;2023-04-09T07:21:43;12.7;57.5
78708;SHT31;68037;51.978;5.650;2023-04-09T07:24:14;12.7;57.8
78708;SHT31;68037;51.978;5.650;2023-04-09T07:26:43;12.7;57.6
78708;SHT31;68037;51.978;5.650;2023-04-09T07:29:13;12.7;57.4
78708;SHT31;68037;51.978;5.650;2023-04-09T07:31:42;12.7;57.5
78708;SHT31;68037;51.978;5.650;2023-04-09T07:34:12;12.7;57.7
78708;SHT31;68037;51.978;5.650;2023-04-09T07:36:42;12.7;58.1
78708;SHT31;68037;51.978;5.650;2023-04-09T07:39:11;12.7;57.8
78708;SHT31;68037;51.978;5.650;2023-04-09T07:41:41;12.8;57.6
78708;SHT31;68037;51.978;5.650;2023-04-09T07:44:10;12.8;57.7
78708;SHT31;68037;51.978;5.650;2023-04-09T07:46:40;12.8;58.3
78708;SHT31;68037;51.978;5.650;2023-04-09T07:49:10;12.8;58.2
78708;SHT31;68037;51.978;5.650;2023-04-09T07:51:42;12.8;57.8
78708;SHT31;68037;51.978;5.650;2023-04-09T07:54:11;12.8;58.3
78708;SHT31;68037;51.978;5.650;2023-04-09T07:56:41;12.8;57.9
78708;SHT31;68037;51.978;5.650;2023-04-09T07:59:11;12.9;57.9
78708;SHT31;68037;51.978;5.650;2023-04-09T08:01:42;12.9;58.0
78708;SHT31;68037;51.978;5.650;2023-04-09T08:04:12;12.9;58.0
78708;SHT31;68037;51.978;5.650;2023-04-09T08:06:42;12.9;58.2
78708;SHT31;68037;51.978;5.650;2023-04-09T08:09:14;13.0;58.0
78708;SHT31;68037;51.978;5.650;2023-04-09T08:11:45;13.1;58.3
78708;SHT31;68037;51.978;5.650;2023-04-09T08:14:16;13.2;57.3
78708;SHT31;68037;51.978;5.650;2023-04-09T08:16:46;13.3;57.4
78708;SHT31;68037;51.978;5.650;2023-04-09T08:19:17;13.4;57.0
78708;SHT31;68037;51.978;5.650;2023-04-09T08:21:47;13.5;56.5
78708;SHT31;68037;51.978;5.650;2023-04-09T08:24:17;13.5;56.3
78708;SHT31;68037;51.978;5.650;2023-04-09T08:26:46;13.5;56.5
78708;SHT31;68037;51.978;5.650;2023-04-09T08:29:16;13.6;56.1
78708;SHT31;68037;51.978;5.650;2023-04-09T08:31:45;13.6;56.5
78708;SHT31;68037;51.978;5.650;2023-04-09T08:34:15;13.6;56.6
78708;SHT31;68037;51.978;5.650;2023-04-09T08:36:47;13.6;56.4
78708;SHT31;68037;51.978;5.650;2023-04-09T08:39:17;13.7;56.7
78708;SHT31;68037;51.978;5.650;2023-04-09T08:41:47;13.7;55.7
78708;SHT31;68037;51.978;5.650;2023-04-09T08:44:17;13.7;55.9
78708;SHT31;68037;51.978;5.650;2023-04-09T08:46:48;13.8;56.1
78708;SHT31;68037;51.978;5.650;2023-04-09T08:49:19;13.8;56.3
78708;SHT31;68037;51.978;5.650;2023-04-09T08:51:49;13.9;55.2
78708;SHT31;68037;51.978;5.650;2023-04-09T08:54:18;13.9;54.6
78708;SHT31;68037;51.978;5.650;2023-04-09T08:56:51;13.9;54.8
78708;SHT31;68037;51.978;5.650;2023-04-09T08:59:20;14.0;55.2
78708;SHT31;68037;51.978;5.650;2023-04-09T09:02:07;14.0;54.0
78708;SHT31;68037;51.978;5.650;2023-04-09T09:04:48;14.1;54.5
78708;SHT31;68037;51.978;5.650;2023-04-09T09:07:19;14.1;54.5
78708;SHT31;68037;51.978;5.650;2023-04-09T09:09:54;14.2;54.5
78708;SHT31;68037;51.978;5.650;2023-04-09T09:12:33;14.2;53.3
78708;SHT31;68037;51.978;5.650;2023-04-09T09:15:05;14.3;53.2
78708;SHT31;68037;51.978;5.650;2023-04-09T09:17:54;14.3;52.7
78708;SHT31;68037;51.978;5.650;2023-04-09T09:20:25;14.4;52.7
78708;SHT31;68037;51.978;5.650;2023-04-09T09:22:55;14.4;52.7
78708;SHT31;68037;51.978;5.650;2023-04-09T09:25:26;14.4;51.8
78708;SHT31;68037;51.978;5.650;2023-04-09T09:28:07;14.4;52.0
78708;SHT31;68037;51.978;5.650;2023-04-09T09:30:38;14.5;53.5
78708;SHT31;68037;51.978;5.650;2023-04-09T09:33:09;14.5;53.9
78708;SHT31;68037;51.978;5.650;2023-04-09T09:35:50;14.5;52.8
78708;SHT31;68037;51.978;5.650;2023-04-09T09:38:20;14.6;53.5
78708;SHT31;68037;51.978;5.650;2023-04-09T09:40:50;14.6;52.7
78708;SHT31;68037;51.978;5.650;2023-04-09T09:43:23;14.7;52.9
78708;SHT31;68037;51.978;5.650;2023-04-09T09:45:53;14.7;52.2
78708;SHT31;68037;51.978;5.650;2023-04-09T09:48:25;14.8;52.1
78708;SHT31;68037;51.978;5.650;2023-04-09T09:50:55;14.9;51.6
78708;SHT31;68037;51.978;5.650;2023-04-09T09:53:26;15.0;51.0
78708;SHT31;68037;51.978;5.650;2023-04-09T09:55:59;15.1;51.1
78708;SHT31;68037;51.978;5.650;2023-04-09T09:58:34;15.2;51.8
78708;SHT31;68037;51.978;5.650;2023-04-09T10:01:09;15.3;51.3
78708;SHT31;68037;51.978;5.650;2023-04-09T10:03:42;15.5;51.0
78708;SHT31;68037;51.978;5.650;2023-04-09T10:06:13;15.6;49.6
78708;SHT31;68037;51.978;5.650;2023-04-09T10:08:47;15.7;48.0
78708;SHT31;68037;51.978;5.650;2023-04-09T10:11:19;15.8;49.1
78708;SHT31;68037;51.978;5.650;2023-04-09T10:13:55;15.8;48.5
78708;SHT31;68037;51.978;5.650;2023-04-09T10:16:26;15.9;47.7
78708;SHT31;68037;51.978;5.650;2023-04-09T10:18:58;16.0;48.0
78708;SHT31;68037;51.978;5.650;2023-04-09T10:21:38;16.0;47.1
78708;SHT31;68037;51.978;5.650;2023-04-09T10:24:10;16.1;46.7
78708;SHT31;68037;51.978;5.650;2023-04-09T10:26:49;16.1;47.3
78708;SHT31;68037;51.978;5.650;2023-04-09T10:29:27;16.2;47.1
78708;SHT31;68037;51.978;5.650;2023-04-09T10:32:05;16.3;47.4
78708;SHT31;68037;51.978;5.650;2023-04-09T10:34:38;16.4;47.3
78708;SHT31;68037;51.978;5.650;2023-04-09T10:37:12;16.6;47.0
78708;SHT31;68037;51.978;5.650;2023-04-09T10:39:46;16.6;45.6
78708;SHT31;68037;51.978;5.650;2023-04-09T10:42:22;16.7;45.4
78708;SHT31;68037;51.978;5.650;2023-04-09T10:45:15;16.7;45.6
78708;SHT31;68037;51.978;5.650;2023-04-09T10:47:49;16.8;44.2
78708;SHT31;68037;51.978;5.650;2023-04-09T10:50:20;16.8;45.6
78708;SHT31;68037;51.978;5.650;2023-04-09T10:52:54;16.8;45.2
78708;SHT31;68037;51.978;5.650;2023-04-09T10:55:33;16.9;45.1
78708;SHT31;68037;51.978;5.650;2023-04-09T10:58:04;16.9;44.6
78708;SHT31;68037;51.978;5.650;2023-04-09T11:00:37;16.9;43.5
78708;SHT31;68037;51.978;5.650;2023-04-09T11:03:21;16.9;44.2
78708;SHT31;68037;51.978;5.650;2023-04-09T11:05:54;16.8;45.2
78708;SHT31;68037;51.978;5.650;2023-04-09T11:08:27;16.8;44.4
78708;SHT31;68037;51.978;5.650;2023-04-09T11:10:57;16.8;45.5
78708;SHT31;68037;51.978;5.650;2023-04-09T11:13:29;16.8;44.7
78708;SHT31;68037;51.978;5.650;2023-04-09T11:16:01;16.9;43.9
78708;SHT31;68037;51.978;5.650;2023-04-09T11:18:33;16.9;44.3
78708;SHT31;68037;51.978;5.650;2023-04-09T11:21:03;17.0;43.4
78708;SHT31;68037;51.978;5.650;2023-04-09T11:23:33;17.0;43.7
78708;SHT31;68037;51.978;5.650;2023-04-09T11:26:03;17.1;43.0
78708;SHT31;68037;51.978;5.650;2023-04-09T11:28:34;17.1;42.3
78708;SHT31;68037;51.978;5.650;2023-04-09T11:31:05;17.2;43.2
78708;SHT31;68037;51.978;5.650;2023-04-09T11:33:37;17.3;42.3
78708;SHT31;68037;51.978;5.650;2023-04-09T11:36:08;17.4;42.2
78708;SHT31;68037;51.978;5.650;2023-04-09T11:38:38;17.5;41.0
78708;SHT31;68037;51.978;5.650;2023-04-09T11:41:08;17.6;41.6
78708;SHT31;68037;51.978;5.650;2023-04-09T11:43:39;17.6;41.0
78708;SHT31;68037;51.978;5.650;2023-04-09T11:46:09;17.7;40.6
78708;SHT31;68037;51.978;5.650;2023-04-09T11:48:39;17.7;40.5
78708;SHT31;68037;51.978;5.650;2023-04-09T11:51:09;17.8;41.0
78708;SHT31;68037;51.978;5.650;2023-04-09T11:53:40;17.8;41.2
78708;SHT31;68037;51.978;5.650;2023-04-09T11:56:09;17.9;41.4
78708;SHT31;68037;51.978;5.650;2023-04-09T11:58:44;18.0;41.6
78708;SHT31;68037;51.978;5.650;2023-04-09T12:01:15;18.1;41.1
78708;SHT31;68037;51.978;5.650;2023-04-09T12:03:53;18.2;40.4
78708;SHT31;68037;51.978;5.650;2023-04-09T12:06:23;18.4;39.0
78708;SHT31;68037;51.978;5.650;2023-04-09T12:08:54;18.5;39.3
78708;SHT31;68037;51.978;5.650;2023-04-09T12:11:38;18.6;39.8
78708;SHT31;68037;51.978;5.650;2023-04-09T12:14:17;18.8;39.3
78708;SHT31;68037;51.978;5.650;2023-04-09T12:16:54;19.0;38.8
78708;SHT31;68037;51.978;5.650;2023-04-09T12:19:24;19.1;37.3
78708;SHT31;68037;51.978;5.650;2023-04-09T12:21:55;19.2;37.0
78708;SHT31;68037;51.978;5.650;2023-04-09T12:24:25;19.2;37.7
78708;SHT31;68037;51.978;5.650;2023-04-09T12:26:55;19.3;37.2
78708;SHT31;68037;51.978;5.650;2023-04-09T12:29:25;19.3;36.8
78708;SHT31;68037;51.978;5.650;2023-04-09T12:31:56;19.3;36.4
78708;SHT31;68037;51.978;5.650;2023-04-09T12:34:25;19.4;35.7
78708;SHT31;68037;51.978;5.650;2023-04-09T12:36:59;19.4;36.1
78708;SHT31;68037;51.978;5.650;2023-04-09T12:39:28;19.4;35.5
78708;SHT31;68037;51.978;5.650;2023-04-09T12:41:57;19.4;36.0
78708;SHT31;68037;51.978;5.650;2023-04-09T12:44:29;19.4;36.6
78708;SHT31;68037;51.978;5.650;2023-04-09T12:47:03;19.5;37.1
78708;SHT31;68037;51.978;5.650;2023-04-09T12:49:36;19.6;36.1
78708;SHT31;68037;51.978;5.650;2023-04-09T12:52:13;19.8;36.0
78708;SHT31;68037;51.978;5.650;2023-04-09T12:54:42;19.8;35.5
78708;SHT31;68037;51.978;5.650;2023-04-09T12:57:12;19.9;35.2
78708;SHT31;68037;51.978;5.650;2023-04-09T12:59:42;19.9;35.9
78708;SHT31;68037;51.978;5.650;2023-04-09T13:02:12;19.9;34.5
78708;SHT31;68037;51.978;5.650;2023-04-09T13:04:42;19.9;34.9
78708;SHT31;68037;51.978;5.650;2023-04-09T13:07:11;19.9;35.2
78708;SHT31;68037;51.978;5.650;2023-04-09T13:09:42;19.9;35.0
78708;SHT31;68037;51.978;5.650;2023-04-09T13:12:12;19.9;35.2
78708;SHT31;68037;51.978;5.650;2023-04-09T13:14:43;19.9;35.2
78708;SHT31;68037;51.978;5.650;2023-04-09T13:17:16;19.9;36.1
78708;SHT31;68037;51.978;5.650;2023-04-09T13:19:45;19.9;35.9
78708;SHT31;68037;51.978;5.650;2023-04-09T13:22:16;19.9;35.7
78708;SHT31;68037;51.978;5.650;2023-04-09T13:24:45;19.9;36.0
78708;SHT31;68037;51.978;5.650;2023-04-09T13:27:18;20.0;35.8
78708;SHT31;68037;51.978;5.650;2023-04-09T13:29:48;20.0;35.9
78708;SHT31;68037;51.978;5.650;2023-04-09T13:32:17;20.1;35.5
78708;SHT31;68037;51.978;5.650;2023-04-09T13:34:49;20.2;36.1
78708;SHT31;68037;51.978;5.650;2023-04-09T13:37:20;20.3;35.2
78708;SHT31;68037;51.978;5.650;2023-04-09T13:39:50;20.3;35.8
78708;SHT31;68037;51.978;5.650;2023-04-09T13:42:22;20.3;35.5
78708;SHT31;68037;51.978;5.650;2023-04-09T13:44:58;20.4;34.6
78708;SHT31;68037;51.978;5.650;2023-04-09T13:47:27;20.5;33.7
78708;SHT31;68037;51.978;5.650;2023-04-09T13:50:04;20.6;34.0
78708;SHT31;68037;51.978;5.650;2023-04-09T13:52:39;20.7;34.5
78708;SHT31;68037;51.978;5.650;2023-04-09T13:55:11;20.8;34.2
78708;SHT31;68037;51.978;5.650;2023-04-09T13:57:40;20.8;33.5
78708;SHT31;68037;51.978;5.650;2023-04-09T14:00:14;20.9;33.2
78708;SHT31;68037;51.978;5.650;2023-04-09T14:02:45;20.9;34.1
78708;SHT31;68037;51.978;5.650;2023-04-09T14:05:15;21.0;33.3
78708;SHT31;68037;51.978;5.650;2023-04-09T14:07:45;21.0;33.0
78708;SHT31;68037;51.978;5.650;2023-04-09T14:10:17;21.0;33.1
78708;SHT31;68037;51.978;5.650;2023-04-09T14:12:46;21.1;33.6
78708;SHT31;68037;51.978;5.650;2023-04-09T14:15:17;21.1;33.7
78708;SHT31;68037;51.978;5.650;2023-04-09T14:17:47;21.1;33.1
78708;SHT31;68037;51.978;5.650;2023-04-09T14:20:17;21.1;33.5
78708;SHT31;68037;51.978;5.650;2023-04-09T14:22:49;21.1;33.6
78708;SHT31;68037;51.978;5.650;2023-04-09T14:25:20;21.2;32.8
78708;SHT31;68037;51.978;5.650;2023-04-09T14:27:50;21.2;33.0
78708;SHT31;68037;51.978;5.650;2023-04-09T14:30:21;21.2;32.4
78708;SHT31;68037;51.978;5.650;2023-04-09T14:32:51;21.1;32.8
78708;SHT31;68037;51.978;5.650;2023-04-09T14:35:21;21.1;33.0
78708;SHT31;68037;51.978;5.650;2023-04-09T14:37:51;21.1;33.5
78708;SHT31;68037;51.978;5.650;2023-04-09T14:40:21;21.1;33.6
78708;SHT31;68037;51.978;5.650;2023-04-09T14:42:50;21.1;33.4
78708;SHT31;68037;51.978;5.650;2023-04-09T14:45:20;21.1;33.7
78708;SHT31;68037;51.978;5.650;2023-04-09T14:47:49;21.1;32.7
78708;SHT31;68037;51.978;5.650;2023-04-09T14:50:21;21.1;33.2
78708;SHT31;68037;51.978;5.650;2023-04-09T14:52:50;21.1;32.5
78708;SHT31;68037;51.978;5.650;2023-04-09T14:55:22;21.1;33.3
78708;SHT31;68037;51.978;5.650;2023-04-09T14:57:54;21.1;32.8
78708;SHT31;68037;51.978;5.650;2023-04-09T15:00:29;21.2;32.6
78708;SHT31;68037;51.978;5.650;2023-04-09T15:02:59;21.2;33.7
78708;SHT31;68037;51.978;5.650;2023-04-09T15:05:29;21.2;33.7
78708;SHT31;68037;51.978;5.650;2023-04-09T15:07:59;21.2;32.8
78708;SHT31;68037;51.978;5.650;2023-04-09T15:10:28;21.2;33.1
78708;SHT31;68037;51.978;5.650;2023-04-09T15:12:58;21.1;33.1
78708;SHT31;68037;51.978;5.650;2023-04-09T15:15:28;21.1;32.9
78708;SHT31;68037;51.978;5.650;2023-04-09T15:17:58;21.1;33.3
78708;SHT31;68037;51.978;5.650;2023-04-09T15:20:35;21.1;33.0
78708;SHT31;68037;51.978;5.650;2023-04-09T15:23:04;21.1;33.2
78708;SHT31;68037;51.978;5.650;2023-04-09T15:25:34;21.2;32.5
78708;SHT31;68037;51.978;5.650;2023-04-09T15:28:05;21.2;33.0
78708;SHT31;68037;51.978;5.650;2023-04-09T15:30:36;21.2;34.0
78708;SHT31;68037;51.978;5.650;2023-04-09T15:33:06;21.2;33.5
78708;SHT31;68037;51.978;5.650;2023-04-09T15:35:36;21.3;32.5
78708;SHT31;68037;51.978;5.650;2023-04-09T15:38:06;21.3;32.5
78708;SHT31;68037;51.978;5.650;2023-04-09T15:40:35;21.3;32.8
78708;SHT31;68037;51.978;5.650;2023-04-09T15:43:05;21.3;33.0
78708;SHT31;68037;51.978;5.650;2023-04-09T15:45:34;21.3;32.2
78708;SHT31;68037;51.978;5.650;2023-04-09T15:48:10;21.4;33.4
78708;SHT31;68037;51.978;5.650;2023-04-09T15:50:39;21.5;33.2
78708;SHT31;68037;51.978;5.650;2023-04-09T15:53:09;21.7;32.2
78708;SHT31;68037;51.978;5.650;2023-04-09T15:55:38;21.9;31.7
78708;SHT31;68037;51.978;5.650;2023-04-09T15:58:10;22.1;31.1
78708;SHT31;68037;51.978;5.650;2023-04-09T16:00:39;22.3;31.0
78708;SHT31;68037;51.978;5.650;2023-04-09T16:03:09;22.5;31.0
78708;SHT31;68037;51.978;5.650;2023-04-09T16:05:39;22.6;30.7
78708;SHT31;68037;51.978;5.650;2023-04-09T16:08:09;22.8;30.3
78708;SHT31;68037;51.978;5.650;2023-04-09T16:10:40;23.0;29.9
78708;SHT31;68037;51.978;5.650;2023-04-09T16:13:09;23.1;30.4
78708;SHT31;68037;51.978;5.650;2023-04-09T16:15:41;23.3;29.7
78708;SHT31;68037;51.978;5.650;2023-04-09T16:18:13;23.5;29.5
78708;SHT31;68037;51.978;5.650;2023-04-09T16:20:43;23.6;29.6
78708;SHT31;68037;51.978;5.650;2023-04-09T16:23:12;23.8;29.8
78708;SHT31;68037;51.978;5.650;2023-04-09T16:25:42;23.9;29.1
78708;SHT31;68037;51.978;5.650;2023-04-09T16:28:12;24.0;28.8